Time;durP1;ratioP1;P1;durP2;ratioP2;P2;SDS_P1;SDS_P2;PMS_P1;PMS_P2;Temp;Humidity;BMP_temperature;BMP_pressure;BME280_temperature;BME280_humidity;BME280_pressure;Samples;Min_cycle;Max_cycle;Signal;HPM_P1;HPM_P2
2022/06/05 00:01:00;;;;;;;1.98;0.66;;;18.90;99.90;;;-142.70;100.00;59355.34;175228;28;1233;-67
2022/06/05 00:03:22;;;;;;;3.05;0.73;;;18.90;99.90;;;-142.70;100.00;59355.34;174432;28;1579;-67
2022/06/05 00:06:23;;;;;;;2.14;0.61;;;18.90;99.90;;;-142.70;100.00;59355.34;175339;28;1230;-67
2022/06/05 00:09:03;;;;;;;1.20;0.61;;;18.80;99.90;;;-142.70;100.00;59355.34;174430;28;1504;-66
2022/06/05 00:11:56;;;;;;;1.98;0.69;;;18.70;99.90;;;-142.70;100.00;59355.34;174511;28;1249;-67
2022/06/05 00:14:16;;;;;;;1.49;0.70;;;18.90;99.90;;;-142.70;100.00;59355.34;174377;28;1468;-68
2022/06/05 00:16:24;;;;;;;1.14;0.71;;;18.90;99.90;;;-142.70;100.00;59355.34;174834;28;1522;-67
2022/06/05 00:18:31;;;;;;;0.80;0.57;;;18.80;99.90;;;-142.70;100.00;59355.34;175001;28;1231;-67
2022/06/05 00:20:40;;;;;;;1.92;0.54;;;18.70;99.90;;;-142.70;100.00;59355.34;174542;28;1217;-67
2022/06/05 00:22:47;;;;;;;2.71;0.56;;;18.80;99.90;;;-142.70;100.00;59355.34;174833;28;1464;-67
2022/06/05 00:24:55;;;;;;;1.88;0.51;;;18.80;99.90;;;-142.70;100.00;59355.34;174561;28;1225;-68
2022/06/05 00:27:02;;;;;;;2.10;0.59;;;18.80;99.90;;;-142.70;100.00;59355.34;174265;28;1768;-66
2022/06/05 00:30:02;;;;;;;2.14;0.57;;;18.80;99.90;;;-142.70;100.00;59355.34;174714;28;1572;-67
2022/06/05 00:32:39;;;;;;;2.13;0.56;;;18.80;99.90;;;-142.70;100.00;59355.34;174261;28;1758;-69
2022/06/05 00:34:57;;;;;;;1.94;0.46;;;18.60;99.90;;;-142.70;100.00;59355.34;174688;28;1250;-67
2022/06/05 00:37:19;;;;;;;1.25;0.50;;;18.60;99.90;;;-142.70;100.00;59355.34;174582;28;1223;-67
2022/06/05 00:39:59;;;;;;;2.05;0.65;;;18.70;99.90;;;-142.70;100.00;59355.34;174946;28;1236;-67
2022/06/05 00:42:59;;;;;;;2.24;0.65;;;18.70;99.90;;;-142.70;100.00;59355.34;175084;28;1585;-66
2022/06/05 00:45:12;;;;;;;2.22;0.65;;;18.70;99.90;;;-142.70;100.00;59355.34;174270;28;2842;-67
2022/06/05 00:47:19;;;;;;;1.21;0.64;;;18.70;99.90;;;-142.70;100.00;59355.34;174548;28;1234;-67
2022/06/05 00:49:33;;;;;;;1.16;0.61;;;18.50;99.90;;;-142.70;100.00;59355.34;175180;28;1237;-68
2022/06/05 00:51:45;;;;;;;1.42;0.60;;;18.50;99.90;;;-142.70;100.00;59355.34;174441;28;1411;-67
2022/06/05 00:53:54;;;;;;;2.47;0.65;;;18.60;99.90;;;-142.70;100.00;59355.34;175195;28;1233;-66
2022/06/05 00:56:02;;;;;;;1.45;0.60;;;18.60;99.90;;;-142.70;100.00;59355.34;174826;28;1224;-69
2022/06/05 00:58:13;;;;;;;1.23;0.60;;;18.40;99.90;;;-142.70;100.00;59355.34;175208;28;1554;-67
2022/06/05 01:00:22;;;;;;;1.26;0.60;;;18.40;99.90;;;-142.70;100.00;59355.34;174563;28;1636;-68
2022/06/05 01:02:35;;;;;;;1.65;0.59;;;18.40;99.90;;;-142.70;100.00;59355.34;174297;28;1437;-67
2022/06/05 01:04:45;;;;;;;2.42;0.65;;;18.40;99.90;;;-142.70;100.00;59355.34;175806;28;1402;-66
2022/06/05 01:06:52;;;;;;;2.80;0.69;;;18.40;99.90;;;-142.70;100.00;59355.34;174544;28;1231;-67
2022/06/05 01:09:00;;;;;;;1.90;0.74;;;18.50;99.90;;;-142.70;100.00;59355.34;174391;28;1223;-68
2022/06/05 01:11:08;;;;;;;1.23;0.64;;;18.50;99.90;;;-142.70;100.00;59355.34;173571;28;1568;-66
2022/06/05 01:13:43;;;;;;;1.44;0.67;;;18.50;99.90;;;-142.70;100.00;59355.34;173679;28;1756;-67
2022/06/05 01:16:28;;;;;;;2.05;0.60;;;18.50;99.90;;;-142.70;100.00;59355.34;174309;28;1430;-67
2022/06/05 01:18:47;;;;;;;1.49;0.68;;;18.40;99.90;;;-142.70;100.00;59355.34;174618;28;1234;-68
2022/06/05 01:21:28;;;;;;;2.09;0.80;;;18.30;99.90;;;-142.70;100.00;59355.34;175179;28;1226;-67
2022/06/05 01:23:59;;;;;;;4.01;0.81;;;18.30;99.90;;;-142.70;100.00;59355.34;175195;28;1227;-69
2022/06/05 01:26:46;;;;;;;2.49;0.79;;;18.20;99.90;;;-142.70;100.00;59355.34;174272;28;1735;-68
2022/06/05 01:29:02;;;;;;;3.13;0.80;;;18.20;99.90;;;-142.70;100.00;59355.34;174430;28;1228;-67
2022/06/05 01:31:31;;;;;;;3.60;0.81;;;18.20;99.90;;;-142.70;100.00;59355.34;174480;28;1337;-67
2022/06/05 01:34:13;;;;;;;2.00;0.89;;;18.10;99.90;;;-142.70;100.00;59355.34;174422;28;1406;-68
2022/06/05 01:36:28;;;;;;;2.09;0.80;;;18.10;99.90;;;-142.70;100.00;59355.34;174697;28;1201;-67
2022/06/05 01:38:39;;;;;;;2.01;0.85;;;18.10;99.90;;;-142.70;100.00;59355.34;174933;28;1493;-67
2022/06/05 01:41:11;;;;;;;2.11;0.90;;;18.10;99.90;;;-142.70;100.00;59355.34;175145;28;1610;-69
2022/06/05 01:43:34;;;;;;;2.63;1.10;;;18.00;99.90;;;-142.70;100.00;59355.34;174870;28;1746;-67
2022/06/05 01:45:48;;;;;;;3.71;1.24;;;17.90;99.90;;;-142.70;100.00;59355.34;175072;28;1800;-67
2022/06/05 01:47:59;;;;;;;3.66;1.17;;;17.90;99.90;;;-142.70;100.00;59355.34;173731;28;1326;-66
2022/06/05 01:50:11;;;;;;;2.14;1.10;;;17.80;99.90;;;-142.70;100.00;59355.34;175007;28;1499;-67
2022/06/05 01:52:28;;;;;;;2.91;1.04;;;17.80;99.90;;;-142.70;100.00;59355.34;174662;28;1409;-67
2022/06/05 01:54:47;;;;;;;3.59;1.08;;;17.70;99.90;;;-142.70;100.00;59355.34;175207;28;1255;-67
2022/06/05 01:57:45;;;;;;;2.74;1.01;;;17.70;99.90;;;-142.70;100.00;59355.34;174480;28;1619;-68
2022/06/05 02:00:01;;;;;;;1.88;0.82;;;17.90;99.90;;;-142.70;100.00;59355.34;174600;28;1619;-70
2022/06/05 02:02:24;;;;;;;2.35;0.88;;;17.90;99.90;;;-142.70;100.00;59355.34;174495;28;1286;-67
2022/06/05 02:04:40;;;;;;;3.04;1.01;;;17.90;99.90;;;-142.70;100.00;59355.34;174633;28;1239;-67
2022/06/05 02:06:55;;;;;;;4.18;1.06;;;17.90;99.90;;;-142.70;100.00;59355.34;173778;28;1447;-68
2022/06/05 02:09:13;;;;;;;3.64;1.01;;;17.80;99.90;;;-142.70;100.00;59355.34;174600;28;1215;-67
2022/06/05 02:11:55;;;;;;;2.69;0.99;;;17.90;99.90;;;-142.70;100.00;59355.34;174669;28;1748;-66
2022/06/05 02:14:05;;;;;;;2.89;1.05;;;17.80;99.90;;;-142.70;100.00;59355.34;174990;28;1553;-67
2022/06/05 02:16:13;;;;;;;4.60;1.10;;;17.90;99.90;;;-142.70;100.00;59355.34;174881;28;1345;-67
2022/06/05 02:18:20;;;;;;;3.50;0.93;;;17.90;99.90;;;-142.70;100.00;59355.34;174478;28;1457;-67
2022/06/05 02:20:28;;;;;;;1.71;0.95;;;17.90;99.90;;;-142.70;100.00;59355.34;175100;28;1227;-67
2022/06/05 02:22:36;;;;;;;2.20;0.99;;;17.80;99.90;;;-142.70;100.00;59355.34;175072;28;1229;-67
2022/06/05 02:24:47;;;;;;;2.59;0.85;;;17.80;99.90;;;-142.70;100.00;59355.34;173858;28;1464;-67
2022/06/05 02:26:55;;;;;;;1.65;0.79;;;17.70;99.90;;;-142.70;100.00;59355.34;175260;28;1642;-67
2022/06/05 02:29:05;;;;;;;1.73;0.93;;;17.60;99.90;;;-142.70;100.00;59355.34;174694;28;1404;-66
2022/06/05 02:31:21;;;;;;;3.21;1.21;;;17.50;99.90;;;-142.70;100.00;59355.34;174535;28;1254;-69
2022/06/05 02:33:41;;;;;;;4.10;1.16;;;17.30;99.90;;;-142.70;100.00;59355.34;174570;28;1472;-67
2022/06/05 02:36:01;;;;;;;3.91;1.13;;;17.30;99.90;;;-142.70;100.00;59355.34;174495;28;1365;-67
2022/06/05 02:38:37;;;;;;;1.75;1.05;;;17.40;99.90;;;-142.70;100.00;59355.34;174795;28;1230;-69
2022/06/05 02:41:19;;;;;;;1.70;1.08;;;17.50;99.90;;;-142.70;100.00;59355.34;174581;28;1240;-69
2022/06/05 02:46:54;;;;;;;2.47;1.19;;;17.50;99.90;;;-142.70;100.00;59355.34;174699;28;1184;-67
2022/06/05 02:49:31;;;;;;;2.75;1.20;;;17.40;99.90;;;-142.70;100.00;59355.34;174934;28;1393;-66
2022/06/05 02:51:53;;;;;;;2.53;1.08;;;17.30;99.90;;;-142.70;100.00;59355.34;174724;28;1256;-68
2022/06/05 02:54:09;;;;;;;1.95;0.96;;;17.40;99.90;;;-142.70;100.00;59355.34;174554;28;1316;-66
2022/06/05 02:56:26;;;;;;;1.92;0.94;;;17.50;99.90;;;-142.70;100.00;59355.34;174824;28;1235;-67
2022/06/05 02:58:35;;;;;;;1.83;0.96;;;17.50;99.90;;;-142.70;100.00;59355.34;174807;28;1244;-68
2022/06/05 03:03:27;;;;;;;2.21;1.00;;;17.60;99.90;;;-142.70;100.00;59355.34;174685;28;1219;-67
2022/06/05 03:03:28;;;;;;;2.24;1.00;;;17.70;99.90;;;-142.70;100.00;59355.34;174426;28;1309;-67
2022/06/05 03:05:35;;;;;;;1.33;0.86;;;17.70;99.90;;;-142.70;100.00;59355.34;173770;28;1744;-67
2022/06/05 03:07:44;;;;;;;2.09;0.96;;;17.60;99.90;;;-142.70;100.00;59355.34;174545;28;1415;-67
2022/06/05 03:09:51;;;;;;;1.51;0.90;;;17.60;99.90;;;-142.70;100.00;59355.34;173785;28;1453;-66
2022/06/05 03:11:58;;;;;;;1.60;0.94;;;17.50;99.90;;;-142.70;100.00;59355.34;174445;28;1456;-68
2022/06/05 03:14:06;;;;;;;2.30;0.90;;;17.50;99.90;;;-142.70;100.00;59355.34;175143;28;1231;-68
2022/06/05 03:16:13;;;;;;;2.74;0.90;;;17.50;99.90;;;-142.70;100.00;59355.34;174897;28;1237;-68
2022/06/05 03:18:20;;;;;;;3.41;0.82;;;17.50;99.90;;;-142.70;100.00;59355.34;175204;28;1271;-67
2022/06/05 03:20:28;;;;;;;2.49;0.86;;;17.40;99.90;;;-142.70;100.00;59355.34;174237;28;1395;-66
2022/06/05 03:22:36;;;;;;;2.41;0.77;;;17.50;99.90;;;-142.70;100.00;59355.34;174838;28;1698;-66
2022/06/05 03:24:43;;;;;;;2.00;0.76;;;17.40;99.90;;;-142.70;100.00;59355.34;174563;28;1544;-66
2022/06/05 03:26:51;;;;;;;1.56;0.74;;;17.30;99.90;;;-142.70;100.00;59355.34;174653;28;1326;-66
2022/06/05 03:28:58;;;;;;;1.59;0.76;;;17.30;99.90;;;-142.70;100.00;59355.34;174390;28;1391;-69
2022/06/05 03:31:06;;;;;;;1.42;0.79;;;17.30;99.90;;;-142.70;100.00;59355.34;173991;28;1468;-67
2022/06/05 03:33:13;;;;;;;1.48;0.74;;;17.30;99.90;;;-142.70;100.00;59355.34;174562;28;1246;-66
2022/06/05 03:35:21;;;;;;;1.40;0.80;;;17.40;99.90;;;-142.70;100.00;59355.34;173812;28;1736;-69
2022/06/05 03:37:28;;;;;;;1.77;0.71;;;17.40;99.90;;;-142.70;100.00;59355.34;174565;28;1208;-67
2022/06/05 03:39:35;;;;;;;2.76;0.80;;;17.50;99.90;;;-142.70;100.00;59355.34;175329;28;1223;-66
2022/06/05 03:41:43;;;;;;;1.71;0.80;;;17.50;99.90;;;-142.70;100.00;59355.34;174340;28;1358;-67
2022/06/05 03:43:51;;;;;;;2.76;0.63;;;17.50;99.90;;;-142.70;100.00;59355.34;174567;28;1215;-67
2022/06/05 03:45:58;;;;;;;3.96;0.80;;;17.40;99.90;;;-142.70;100.00;59355.34;174519;28;1434;-68
2022/06/05 03:48:10;;;;;;;1.98;0.91;;;17.40;99.90;;;-142.70;100.00;59355.34;174690;28;1216;-67
2022/06/05 03:50:18;;;;;;;2.17;0.86;;;17.40;99.90;;;-142.70;100.00;59355.34;174488;28;1232;-69
2022/06/05 03:52:26;;;;;;;1.23;0.70;;;17.40;99.90;;;-142.70;100.00;59355.34;175105;28;1600;-66
2022/06/05 03:54:33;;;;;;;1.44;0.73;;;17.30;99.90;;;-142.70;100.00;59355.34;174928;28;1257;-67
2022/06/05 03:56:41;;;;;;;1.33;0.84;;;17.30;99.90;;;-142.70;100.00;59355.34;174579;28;1224;-67
2022/06/05 03:58:49;;;;;;;1.75;0.90;;;17.20;99.90;;;-142.70;100.00;59355.34;174882;28;1558;-67
2022/06/05 04:00:57;;;;;;;1.69;0.80;;;17.30;99.90;;;-142.70;100.00;59355.34;174388;28;1441;-68
2022/06/05 04:03:08;;;;;;;2.13;0.84;;;17.40;99.90;;;-142.70;100.00;59355.34;174537;28;1226;-68
2022/06/05 04:05:15;;;;;;;1.84;0.90;;;17.50;99.90;;;-142.70;100.00;59355.34;174529;28;1219;-66
2022/06/05 04:07:25;;;;;;;2.19;0.93;;;17.40;99.90;;;-142.70;100.00;59355.34;174490;28;1237;-66
2022/06/05 04:09:33;;;;;;;2.89;0.99;;;17.50;99.90;;;-142.70;100.00;59355.34;173743;28;1456;-69
2022/06/05 04:11:40;;;;;;;2.03;0.96;;;17.40;99.90;;;-142.70;100.00;59355.34;174957;28;1798;-66
2022/06/05 04:13:47;;;;;;;1.59;0.94;;;17.50;99.90;;;-142.70;100.00;59355.34;174550;28;1244;-68
2022/06/05 04:15:55;;;;;;;1.84;1.02;;;17.50;99.90;;;-142.70;100.00;59355.34;174551;28;1232;-67
2022/06/05 04:18:02;;;;;;;1.85;0.90;;;17.50;99.90;;;-142.70;100.00;59355.34;174546;28;1810;-66
2022/06/05 04:20:10;;;;;;;1.99;0.85;;;17.60;99.90;;;-142.70;100.00;59355.34;174451;28;1245;-66
2022/06/05 04:22:19;;;;;;;2.13;0.84;;;17.60;99.90;;;-142.70;100.00;59355.34;174931;28;1245;-66
2022/06/05 04:24:26;;;;;;;2.06;0.94;;;17.60;99.90;;;-142.70;100.00;59355.34;173893;28;1510;-67
2022/06/05 04:26:33;;;;;;;1.94;0.82;;;17.60;99.90;;;-142.70;100.00;59355.34;173647;28;1658;-67
2022/06/05 04:28:43;;;;;;;1.29;0.74;;;17.60;99.90;;;-142.70;100.00;59355.34;174394;28;1483;-68
2022/06/05 04:30:50;;;;;;;1.96;0.77;;;17.50;99.90;;;-142.70;100.00;59355.34;174422;28;1232;-66
2022/06/05 04:32:59;;;;;;;2.56;0.85;;;17.60;99.90;;;-142.70;100.00;59355.34;174704;28;1314;-66
2022/06/05 04:35:11;;;;;;;2.36;0.90;;;17.60;99.90;;;-142.70;100.00;59355.34;174254;28;1495;-67
2022/06/05 04:37:18;;;;;;;1.73;0.86;;;17.50;99.90;;;-142.70;100.00;59355.34;173692;28;1493;-67
2022/06/05 04:39:26;;;;;;;1.63;0.84;;;17.60;99.90;;;-142.70;100.00;59355.34;175265;28;1219;-66
2022/06/05 04:41:33;;;;;;;1.56;0.90;;;17.60;99.90;;;-142.70;100.00;59355.34;174927;28;1282;-67
2022/06/05 04:43:41;;;;;;;1.77;0.89;;;17.60;99.90;;;-142.70;100.00;59355.34;173656;28;2910;-66
2022/06/05 04:45:50;;;;;;;2.29;0.90;;;17.60;99.90;;;-142.70;100.00;59355.34;174872;28;1241;-69
2022/06/05 04:47:57;;;;;;;1.40;0.89;;;17.60;99.90;;;-142.70;100.00;59355.34;174589;28;1644;-67
2022/06/05 04:50:05;;;;;;;2.03;1.04;;;17.70;99.90;;;-142.70;100.00;59355.34;175237;28;1248;-67
2022/06/05 04:52:12;;;;;;;1.75;1.00;;;17.70;99.90;;;-142.70;100.00;59355.34;175045;28;1488;-66
2022/06/05 04:54:20;;;;;;;2.61;1.14;;;17.80;99.90;;;-142.70;100.00;59355.34;174374;28;1467;-67
2022/06/05 04:56:27;;;;;;;3.09;1.10;;;17.90;99.90;;;-142.70;100.00;59355.34;174806;28;1243;-68
2022/06/05 04:58:36;;;;;;;2.40;0.99;;;17.90;99.90;;;-142.70;100.00;59355.34;174706;28;1252;-66
2022/06/05 05:00:44;;;;;;;1.73;0.93;;;17.90;99.90;;;-142.70;100.00;59355.34;175217;28;1261;-67
2022/06/05 05:02:51;;;;;;;2.36;1.06;;;18.00;99.90;;;-142.70;100.00;59355.34;174545;28;1222;-66
2022/06/05 05:04:59;;;;;;;2.03;1.04;;;18.00;99.90;;;-142.70;100.00;59355.34;173895;28;1498;-68
2022/06/05 05:07:07;;;;;;;1.89;1.03;;;18.00;99.90;;;-142.70;100.00;59355.34;174709;28;1733;-69
2022/06/05 05:09:16;;;;;;;2.08;1.10;;;18.10;99.90;;;-142.70;100.00;59355.34;174231;28;1342;-66
2022/06/05 05:11:23;;;;;;;2.13;0.99;;;18.10;99.90;;;-142.70;100.00;59355.34;173947;28;1455;-69
2022/06/05 05:13:31;;;;;;;1.51;0.90;;;18.10;99.90;;;-142.70;100.00;59355.34;174492;28;1224;-66
2022/06/05 05:15:39;;;;;;;1.60;0.90;;;18.10;99.90;;;-142.70;100.00;59355.34;174521;28;1683;-66
2022/06/05 05:17:52;;;;;;;1.90;0.88;;;18.10;99.90;;;-142.70;100.00;59355.34;174485;28;1228;-66
2022/06/05 05:20:00;;;;;;;2.16;1.01;;;18.10;99.90;;;-142.70;100.00;59355.34;174308;28;2938;-68
2022/06/05 05:22:09;;;;;;;1.83;0.94;;;18.20;99.90;;;-142.70;100.00;59355.34;174948;28;1435;-66
2022/06/05 05:24:16;;;;;;;1.81;0.96;;;18.30;99.90;;;-142.70;100.00;59355.34;174322;28;1567;-66
2022/06/05 05:26:24;;;;;;;1.75;0.96;;;18.30;99.90;;;-142.70;100.00;59355.34;175107;28;1240;-66
2022/06/05 05:28:33;;;;;;;1.92;0.94;;;18.30;99.90;;;-142.70;100.00;59355.34;174424;28;1237;-66
2022/06/05 05:30:42;;;;;;;2.46;1.01;;;18.40;99.90;;;-142.70;100.00;59355.34;173743;28;1504;-69
2022/06/05 05:32:50;;;;;;;2.96;1.27;;;18.40;99.90;;;-142.70;100.00;59355.34;173789;28;1488;-66
2022/06/05 05:34:58;;;;;;;2.60;1.45;;;18.40;99.90;;;-142.70;100.00;59355.34;174918;28;2196;-69
2022/06/05 05:37:07;;;;;;;2.13;1.06;;;18.50;99.90;;;-142.70;100.00;59355.34;173911;28;1345;-66
2022/06/05 05:44:07;;;;;;;5.24;2.24;;;18.70;99.90;;;-142.70;100.00;59355.34;174568;28;1185;-66
2022/06/05 05:46:14;;;;;;;3.88;1.79;;;18.70;99.90;;;-142.70;100.00;59355.34;173872;28;2962;-68
2022/06/05 05:48:26;;;;;;;4.16;1.45;;;18.70;99.90;;;-142.70;100.00;59355.34;174588;28;1437;-67
2022/06/05 05:50:33;;;;;;;5.75;1.61;;;18.80;99.90;;;-142.70;100.00;59355.34;175272;28;1229;-67
2022/06/05 05:52:44;;;;;;;4.04;1.24;;;18.90;99.90;;;-142.70;100.00;59355.34;174798;28;1951;-67
2022/06/05 05:54:52;;;;;;;3.06;1.08;;;18.90;99.90;;;-142.70;100.00;59355.34;175322;28;1388;-67
2022/06/05 05:56:59;;;;;;;1.95;0.94;;;19.00;99.90;;;-142.70;100.00;59355.34;174565;28;1340;-67
2022/06/05 05:59:07;;;;;;;2.42;1.02;;;19.00;99.90;;;-142.70;100.00;59355.34;175330;28;1217;-68
2022/06/05 06:01:15;;;;;;;3.19;1.06;;;19.10;99.90;;;-142.70;100.00;59355.34;174645;28;1217;-68
2022/06/05 06:03:23;;;;;;;2.51;1.20;;;19.20;99.90;;;-142.70;100.00;59355.34;174872;28;1220;-67
2022/06/05 06:05:30;;;;;;;3.66;1.77;;;19.20;99.90;;;-142.70;100.00;59355.34;173705;28;3104;-67
2022/06/05 06:07:38;;;;;;;5.60;2.47;;;19.20;99.90;;;-142.70;100.00;59355.34;175306;28;1236;-70
2022/06/05 06:09:46;;;;;;;4.11;1.36;;;19.30;99.90;;;-142.70;100.00;59355.34;175200;28;1231;-68
2022/06/05 06:11:53;;;;;;;4.19;1.24;;;19.40;99.90;;;-142.70;100.00;59355.34;174542;28;1377;-66
2022/06/05 06:14:01;;;;;;;3.33;1.21;;;19.40;99.90;;;-142.70;100.00;59355.34;174454;28;1364;-67
2022/06/05 06:16:09;;;;;;;3.31;1.21;;;19.50;99.90;;;-142.70;100.00;59355.34;174381;28;1663;-68
2022/06/05 06:18:16;;;;;;;3.50;1.39;;;19.50;99.90;;;-142.70;100.00;59355.34;174545;28;1480;-68
2022/06/05 06:20:23;;;;;;;2.96;1.60;;;19.60;99.90;;;-142.70;100.00;59355.34;174459;28;1554;-67
2022/06/05 06:22:31;;;;;;;5.69;2.10;;;19.70;99.90;;;-142.70;100.00;59355.34;173827;28;1455;-67
2022/06/05 06:24:38;;;;;;;3.84;1.50;;;19.70;99.90;;;-142.70;100.00;59355.34;175290;28;1246;-67
2022/06/05 06:26:45;;;;;;;3.66;1.33;;;19.80;99.90;;;-142.70;100.00;59355.34;175461;28;1387;-66
2022/06/05 06:28:52;;;;;;;4.01;1.27;;;19.80;99.90;;;-142.70;100.00;59355.34;174515;28;1224;-66
2022/06/05 06:31:00;;;;;;;2.49;1.23;;;19.90;99.90;;;-142.70;100.00;59355.34;174111;28;1598;-67
2022/06/05 06:33:09;;;;;;;2.89;1.25;;;19.90;99.90;;;-142.70;100.00;59355.34;174654;28;1294;-68
2022/06/05 06:35:16;;;;;;;2.28;1.20;;;20.00;99.90;;;-142.70;100.00;59355.34;174462;28;1356;-67
2022/06/05 06:37:23;;;;;;;1.94;1.17;;;20.00;99.90;;;-142.70;100.00;59355.34;174246;28;2890;-66
2022/06/05 06:39:31;;;;;;;2.14;1.33;;;20.10;99.90;;;-142.70;100.00;59355.34;173816;28;1483;-66
2022/06/05 06:41:38;;;;;;;3.22;1.33;;;20.10;99.90;;;-142.70;100.00;59355.34;174383;28;1513;-66
2022/06/05 06:43:45;;;;;;;3.17;1.40;;;20.10;99.90;;;-142.70;100.00;59355.34;175204;28;1356;-67
2022/06/05 06:45:52;;;;;;;2.19;1.07;;;20.10;99.90;;;-142.70;100.00;59355.34;175315;28;1258;-67
2022/06/05 06:48:00;;;;;;;2.30;1.14;;;20.20;99.90;;;-142.70;100.00;59355.34;174459;28;1452;-66
2022/06/05 06:50:08;;;;;;;2.78;1.27;;;20.30;99.90;;;-142.70;100.00;59355.34;174375;28;1814;-68
2022/06/05 06:52:18;;;;;;;2.94;1.41;;;20.50;99.90;;;-142.70;100.00;59355.34;175041;28;1542;-67
2022/06/05 06:54:25;;;;;;;2.75;1.40;;;20.60;99.90;;;-142.70;100.00;59355.34;174924;28;1223;-67
2022/06/05 06:56:33;;;;;;;2.58;1.26;;;20.60;99.90;;;-142.70;100.00;59355.34;174487;28;1471;-69
2022/06/05 06:58:40;;;;;;;3.03;1.30;;;20.70;99.90;;;-142.70;100.00;59355.34;174613;28;1613;-66
2022/06/05 07:00:48;;;;;;;2.84;1.42;;;20.70;99.90;;;-142.70;100.00;59355.34;174978;28;1224;-69
2022/06/05 07:02:55;;;;;;;2.54;1.33;;;20.80;99.90;;;-142.70;100.00;59355.34;174301;28;1403;-67
2022/06/05 07:05:02;;;;;;;2.09;1.26;;;20.80;99.90;;;-142.70;100.00;59355.34;174490;28;1236;-69
2022/06/05 07:07:11;;;;;;;2.55;1.34;;;20.90;99.90;;;-142.70;100.00;59355.34;175199;28;1234;-67
2022/06/05 07:09:18;;;;;;;2.09;1.27;;;20.90;99.90;;;-142.70;100.00;59355.34;174493;28;1269;-66
2022/06/05 07:11:26;;;;;;;3.00;1.44;;;21.00;99.90;;;-142.70;100.00;59355.34;173756;28;1465;-67
2022/06/05 07:13:35;;;;;;;3.84;1.51;;;21.10;99.90;;;-142.70;100.00;59355.34;174493;28;1362;-68
2022/06/05 07:15:42;;;;;;;2.54;1.29;;;21.20;99.90;;;-142.70;100.00;59355.34;174523;28;1237;-66
2022/06/05 07:17:49;;;;;;;1.83;1.15;;;21.20;99.90;;;-142.70;100.00;59355.34;174427;28;1508;-68
2022/06/05 07:19:56;;;;;;;2.94;1.23;;;21.30;99.90;;;-142.70;100.00;59355.34;174062;28;1506;-68
2022/06/05 07:22:11;;;;;;;2.99;1.40;;;21.30;99.90;;;-142.70;100.00;59355.34;174424;28;1495;-68
2022/06/05 07:24:19;;;;;;;2.92;1.34;;;21.40;99.90;;;-142.70;100.00;59355.34;174390;28;1241;-67
2022/06/05 07:26:26;;;;;;;3.92;1.27;;;21.50;99.90;;;-142.70;100.00;59355.34;175266;28;1217;-66
2022/06/05 07:28:34;;;;;;;3.70;1.36;;;21.50;99.90;;;-142.70;100.00;59355.34;175296;28;1227;-66
2022/06/05 07:30:42;;;;;;;2.61;1.40;;;21.60;99.90;;;-142.70;100.00;59355.34;174793;28;1358;-66
2022/06/05 07:32:51;;;;;;;2.09;1.23;;;21.80;99.90;;;-142.70;100.00;59355.34;174256;28;1496;-68
2022/06/05 07:34:59;;;;;;;2.44;1.14;;;22.00;99.90;;;-142.70;100.00;59355.34;175250;28;1300;-66
2022/06/05 07:37:08;;;;;;;2.65;1.05;;;21.90;99.90;;;-142.70;100.00;59355.34;175983;28;1237;-66
2022/06/05 07:39:17;;;;;;;1.80;1.06;;;21.80;99.90;;;-142.70;100.00;59355.34;175200;28;1215;-68
2022/06/05 07:41:24;;;;;;;2.33;1.05;;;21.90;99.90;;;-142.70;100.00;59355.34;174311;28;1396;-66
2022/06/05 07:43:40;;;;;;;3.42;1.34;;;22.00;99.90;;;-142.70;100.00;59355.34;173906;28;1457;-67
2022/06/05 07:45:48;;;;;;;4.41;1.75;;;22.20;99.90;;;-142.70;100.00;59355.34;175209;28;1247;-66
2022/06/05 07:47:56;;;;;;;3.91;1.79;;;22.30;99.90;;;-142.70;100.00;59355.34;174376;28;1326;-65
2022/06/05 07:50:03;;;;;;;3.75;1.34;;;22.30;99.90;;;-142.70;100.00;59355.34;174621;28;1424;-66
2022/06/05 07:54:42;;;;;;;2.22;1.00;;;22.30;99.90;;;-142.70;100.00;59355.34;174615;28;1192;-66
2022/06/05 07:56:49;;;;;;;2.59;1.10;;;22.50;99.90;;;-142.70;100.00;59355.34;174512;28;1206;-68
2022/06/05 07:59:13;;;;;;;3.40;1.12;;;22.50;99.90;;;-142.70;100.00;59355.34;174781;28;1550;-69
2022/06/05 08:01:20;;;;;;;2.59;1.06;;;22.60;99.90;;;-142.70;100.00;59355.34;174099;28;1385;-71
2022/06/05 08:03:31;;;;;;;1.80;1.01;;;22.80;99.90;;;-142.70;100.00;59355.34;175209;28;2527;-71
2022/06/05 08:05:38;;;;;;;2.05;1.13;;;23.30;99.90;;;-142.70;100.00;59355.34;174469;28;2331;-69
2022/06/05 08:07:45;;;;;;;2.86;1.30;;;23.30;99.90;;;-142.70;100.00;59355.34;173813;28;1571;-66
2022/06/05 08:09:53;;;;;;;2.06;1.09;;;23.10;99.90;;;-142.70;100.00;59355.34;174503;28;1228;-66
2022/06/05 08:12:04;;;;;;;1.36;0.89;;;23.00;99.90;;;-142.70;100.00;59355.34;174351;28;1534;-67
2022/06/05 08:14:14;;;;;;;2.34;1.02;;;22.90;99.90;;;-142.70;100.00;59355.34;174210;28;2195;-67
2022/06/05 08:16:22;;;;;;;2.16;1.09;;;22.90;99.90;;;-142.70;100.00;59355.34;175174;28;1228;-66
2022/06/05 08:18:31;;;;;;;1.56;0.91;;;22.80;99.90;;;-142.70;100.00;59355.34;173724;28;1354;-67
2022/06/05 08:20:38;;;;;;;1.51;0.86;;;22.90;99.90;;;-142.70;100.00;59355.34;174258;28;1712;-66
2022/06/05 08:22:46;;;;;;;1.55;0.90;;;22.80;99.90;;;-142.70;100.00;59355.34;174490;28;1256;-67
2022/06/05 08:24:53;;;;;;;1.15;0.89;;;22.80;99.90;;;-142.70;100.00;59355.34;174583;28;1961;-66
2022/06/05 08:27:01;;;;;;;1.59;0.90;;;22.80;99.90;;;-142.70;100.00;59355.34;174963;28;1448;-68
2022/06/05 08:29:14;;;;;;;1.67;1.04;;;22.80;99.90;;;-142.70;100.00;59355.34;175873;28;1226;-66
2022/06/05 08:31:21;;;;;;;1.92;1.06;;;22.80;99.90;;;-142.70;100.00;59355.34;174367;28;1459;-66
2022/06/05 08:33:30;;;;;;;2.15;1.23;;;22.90;99.90;;;-142.70;100.00;59355.34;175092;28;1424;-66
2022/06/05 08:35:37;;;;;;;3.70;1.92;;;22.80;99.90;;;-142.70;100.00;59355.34;174491;28;1224;-68
2022/06/05 08:43:04;;;;;;;2.08;1.05;;;22.90;99.90;;;-142.70;100.00;59355.34;175287;28;1186;-67
2022/06/05 08:45:33;;;;;;;1.93;0.96;;;22.90;99.90;;;-142.70;100.00;59355.34;174366;28;1629;-69
2022/06/05 08:48:01;;;;;;;1.70;1.08;;;22.90;99.90;;;-142.70;100.00;59355.34;174175;28;1383;-67
2022/06/05 08:50:16;;;;;;;1.81;1.08;;;22.90;99.90;;;-142.70;100.00;59355.34;174437;28;1414;-68
2022/06/05 08:52:45;;;;;;;2.47;1.11;;;22.90;99.90;;;-142.70;100.00;59355.34;174510;28;1243;-68
2022/06/05 08:55:19;;;;;;;2.59;1.17;;;22.90;99.90;;;-142.70;100.00;59355.34;174597;28;1487;-67
2022/06/05 08:57:34;;;;;;;2.10;1.10;;;23.00;99.90;;;-142.70;100.00;59355.34;175034;28;1367;-67
2022/06/05 08:59:49;;;;;;;2.56;1.14;;;23.00;99.90;;;-142.70;100.00;59355.34;174691;28;2214;-68
2022/06/05 09:02:06;;;;;;;1.92;0.93;;;22.90;99.90;;;-142.70;100.00;59355.34;174473;28;1220;-68
2022/06/05 09:04:48;;;;;;;2.42;0.93;;;23.00;99.90;;;-142.70;100.00;59355.34;174137;28;1482;-67
2022/06/05 09:07:11;;;;;;;2.35;0.98;;;23.00;99.90;;;-142.70;100.00;59355.34;174463;28;1356;-67
2022/06/05 09:09:23;;;;;;;2.88;1.15;;;23.00;99.90;;;-142.70;100.00;59355.34;175638;28;1237;-69
2022/06/05 09:11:41;;;;;;;2.91;1.09;;;23.00;99.90;;;-142.70;100.00;59355.34;173850;28;1649;-67
2022/06/05 09:14:20;;;;;;;1.79;1.17;;;22.90;99.90;;;-142.70;100.00;59355.34;173993;28;1755;-67
2022/06/05 09:16:50;;;;;;;2.04;1.11;;;22.90;99.90;;;-142.70;100.00;59355.34;174391;28;1464;-67
2022/06/05 09:19:20;;;;;;;2.50;1.15;;;22.90;99.90;;;-142.70;100.00;59355.34;175078;28;1198;-67
2022/06/05 09:21:34;;;;;;;2.46;1.16;;;22.90;99.90;;;-142.70;100.00;59355.34;174519;28;1275;-66
2022/06/05 09:23:51;;;;;;;2.01;1.16;;;23.00;99.90;;;-142.70;100.00;59355.34;174205;28;1454;-68
2022/06/05 09:24:23;;;;;;;3.24;1.29;;;22.90;99.90;;;-142.70;100.00;59355.34;174631;28;1524;-68
2022/06/05 09:25:14;;;;;;;3.10;1.25;;;22.90;99.90;;;-142.70;100.00;59355.34;173103;28;1463;-66
2022/06/05 09:25:43;;;;;;;2.06;1.19;;;22.90;99.90;;;-142.70;100.00;59355.34;174327;28;1742;-66